sensor_id;sensor_type;location;lat;lon;timestamp;pressure;altitude;pressure_sealevel;temperature;humidity
14120;BME280;7138;49.246;9.100;2023-01-29T00:01:02;99933.06;;;2.43;78.18
14120;BME280;7138;49.246;9.100;2023-01-29T00:03:29;99927.97;;;2.43;78.65
14120;BME280;7138;49.246;9.100;2023-01-29T00:05:55;99928.59;;;2.39;77.45
14120;BME280;7138;49.246;9.100;2023-01-29T00:08:21;99937.59;;;2.32;77.66
14120;BME280;7138;49.246;9.100;2023-01-29T00:10:47;99942.00;;;2.18;78.33
14120;BME280;7138;49.246;9.100;2023-01-29T00:13:13;99938.25;;;2.12;79.77
14120;BME280;7138;49.246;9.100;2023-01-29T00:15:39;99942.38;;;2.10;80.05
14120;BME280;7138;49.246;9.100;2023-01-29T00:18:04;99937.28;;;2.10;80.10
14120;BME280;7138;49.246;9.100;2023-01-29T00:20:32;99942.94;;;2.04;79.58
14120;BME280;7138;49.246;9.100;2023-01-29T00:22:58;99946.13;;;2.00;79.68
14120;BME280;7138;49.246;9.100;2023-01-29T00:25:24;99935.84;;;1.99;80.22
14120;BME280;7138;49.246;9.100;2023-01-29T00:27:50;99943.44;;;1.97;80.05
14120;BME280;7138;49.246;9.100;2023-01-29T00:30:17;99943.72;;;1.87;80.15
14120;BME280;7138;49.246;9.100;2023-01-29T00:32:44;99959.47;;;1.80;81.07
14120;BME280;7138;49.246;9.100;2023-01-29T00:35:11;99960.81;;;1.74;80.91
14120;BME280;7138;49.246;9.100;2023-01-29T00:37:38;99964.25;;;1.74;80.53
14120;BME280;7138;49.246;9.100;2023-01-29T00:40:05;99948.94;;;1.74;81.96
14120;BME280;7138;49.246;9.100;2023-01-29T00:42:31;99951.50;;;1.74;81.89
14120;BME280;7138;49.246;9.100;2023-01-29T00:45:16;99949.59;;;1.70;81.20
14120;BME280;7138;49.246;9.100;2023-01-29T00:47:42;99948.56;;;1.67;80.62
14120;BME280;7138;49.246;9.100;2023-01-29T00:50:10;99945.13;;;1.66;80.73
14120;BME280;7138;49.246;9.100;2023-01-29T00:52:38;99953.81;;;1.70;80.78
14120;BME280;7138;49.246;9.100;2023-01-29T00:55:09;99947.13;;;1.72;80.93
14120;BME280;7138;49.246;9.100;2023-01-29T00:57:36;99943.13;;;1.77;80.94
14120;BME280;7138;49.246;9.100;2023-01-29T01:00:08;99941.47;;;1.77;81.16
14120;BME280;7138;49.246;9.100;2023-01-29T01:02:34;99934.81;;;1.79;81.59
14120;BME280;7138;49.246;9.100;2023-01-29T01:05:19;99939.03;;;1.79;81.89
14120;BME280;7138;49.246;9.100;2023-01-29T01:07:49;99944.84;;;1.76;81.09
14120;BME280;7138;49.246;9.100;2023-01-29T01:10:19;99930.22;;;1.74;81.75
14120;BME280;7138;49.246;9.100;2023-01-29T01:12:46;99933.50;;;1.71;81.16
14120;BME280;7138;49.246;9.100;2023-01-29T01:15:12;99939.09;;;1.80;81.70
14120;BME280;7138;49.246;9.100;2023-01-29T01:17:38;99940.84;;;1.81;81.34
14120;BME280;7138;49.246;9.100;2023-01-29T01:20:05;99940.06;;;1.82;81.74
14120;BME280;7138;49.246;9.100;2023-01-29T01:22:31;99931.59;;;1.83;81.35
14120;BME280;7138;49.246;9.100;2023-01-29T01:24:58;99940.13;;;1.84;81.37
14120;BME280;7138;49.246;9.100;2023-01-29T01:27:24;99940.06;;;1.82;81.10
14120;BME280;7138;49.246;9.100;2023-01-29T01:29:50;99937.34;;;1.79;80.98
14120;BME280;7138;49.246;9.100;2023-01-29T01:32:16;99942.28;;;1.76;81.67
14120;BME280;7138;49.246;9.100;2023-01-29T01:34:42;99938.69;;;1.73;82.17
14120;BME280;7138;49.246;9.100;2023-01-29T01:37:10;99945.28;;;1.69;81.61
14120;BME280;7138;49.246;9.100;2023-01-29T01:39:36;99944.00;;;1.61;81.40
14120;BME280;7138;49.246;9.100;2023-01-29T01:42:05;99951.50;;;1.58;80.89
14120;BME280;7138;49.246;9.100;2023-01-29T01:44:57;99939.19;;;1.51;81.76
14120;BME280;7138;49.246;9.100;2023-01-29T01:47:30;99941.13;;;1.40;80.96
14120;BME280;7138;49.246;9.100;2023-01-29T01:50:05;99940.47;;;1.43;81.30
14120;BME280;7138;49.246;9.100;2023-01-29T01:52:38;99916.84;;;1.31;81.39
14120;BME280;7138;49.246;9.100;2023-01-29T01:55:11;99931.22;;;1.45;81.37
14120;BME280;7138;49.246;9.100;2023-01-29T01:57:42;99933.75;;;1.45;81.70
14120;BME280;7138;49.246;9.100;2023-01-29T02:00:14;99935.53;;;1.46;82.24
14120;BME280;7138;49.246;9.100;2023-01-29T02:02:44;99939.97;;;1.50;81.54
14120;BME280;7138;49.246;9.100;2023-01-29T02:05:31;99936.66;;;1.51;82.32
14120;BME280;7138;49.246;9.100;2023-01-29T02:08:20;99939.47;;;1.41;81.70
14120;BME280;7138;49.246;9.100;2023-01-29T02:11:08;99936.69;;;1.36;81.91
14120;BME280;7138;49.246;9.100;2023-01-29T02:13:38;99930.72;;;1.36;80.95
14120;BME280;7138;49.246;9.100;2023-01-29T02:16:04;99937.31;;;1.32;81.30
14120;BME280;7138;49.246;9.100;2023-01-29T02:18:31;99926.22;;;1.32;82.05
14120;BME280;7138;49.246;9.100;2023-01-29T02:21:24;99935.38;;;1.28;81.89
14120;BME280;7138;49.246;9.100;2023-01-29T02:24:31;99930.75;;;1.21;82.00
14120;BME280;7138;49.246;9.100;2023-01-29T02:27:08;99936.63;;;1.20;82.08
14120;BME280;7138;49.246;9.100;2023-01-29T02:29:49;99931.25;;;1.30;81.32
14120;BME280;7138;49.246;9.100;2023-01-29T02:32:28;99946.88;;;1.22;81.79
14120;BME280;7138;49.246;9.100;2023-01-29T02:35:09;99941.19;;;1.26;81.28
14120;BME280;7138;49.246;9.100;2023-01-29T02:38:08;99946.88;;;1.22;81.64
14120;BME280;7138;49.246;9.100;2023-01-29T02:40:42;99939.41;;;1.25;80.73
14120;BME280;7138;49.246;9.100;2023-01-29T02:43:23;99940.22;;;1.24;81.08
14120;BME280;7138;49.246;9.100;2023-01-29T02:46:03;99939.22;;;1.22;80.59
14120;BME280;7138;49.246;9.100;2023-01-29T02:48:41;99925.66;;;1.21;80.93
14120;BME280;7138;49.246;9.100;2023-01-29T02:51:18;99918.34;;;1.27;80.86
14120;BME280;7138;49.246;9.100;2023-01-29T02:53:59;99913.16;;;1.26;81.26
14120;BME280;7138;49.246;9.100;2023-01-29T02:56:32;99926.09;;;1.14;80.56
14120;BME280;7138;49.246;9.100;2023-01-29T02:59:07;99919.72;;;1.06;80.44
14120;BME280;7138;49.246;9.100;2023-01-29T03:01:41;99912.47;;;1.14;81.03
14120;BME280;7138;49.246;9.100;2023-01-29T03:04:14;99915.47;;;1.21;81.13
14120;BME280;7138;49.246;9.100;2023-01-29T03:06:48;99910.59;;;1.26;81.20
14120;BME280;7138;49.246;9.100;2023-01-29T03:09:24;99904.97;;;1.31;81.40
14120;BME280;7138;49.246;9.100;2023-01-29T03:11:57;99906.03;;;1.35;80.75
14120;BME280;7138;49.246;9.100;2023-01-29T03:14:33;99911.22;;;1.36;79.97
14120;BME280;7138;49.246;9.100;2023-01-29T03:17:24;99908.56;;;1.35;79.73
14120;BME280;7138;49.246;9.100;2023-01-29T03:19:51;99889.28;;;1.24;80.06
14120;BME280;7138;49.246;9.100;2023-01-29T03:22:18;99910.50;;;1.39;80.21
14120;BME280;7138;49.246;9.100;2023-01-29T03:24:52;99905.56;;;1.42;80.00
14120;BME280;7138;49.246;9.100;2023-01-29T03:27:43;99893.38;;;1.36;80.67
14120;BME280;7138;49.246;9.100;2023-01-29T03:30:32;99910.34;;;1.36;80.28
14120;BME280;7138;49.246;9.100;2023-01-29T03:33:23;99891.19;;;1.28;80.61
14120;BME280;7138;49.246;9.100;2023-01-29T03:35:55;99902.06;;;1.40;80.74
14120;BME280;7138;49.246;9.100;2023-01-29T03:38:25;99899.53;;;1.40;81.46
14120;BME280;7138;49.246;9.100;2023-01-29T03:41:01;99898.72;;;1.41;80.77
14120;BME280;7138;49.246;9.100;2023-01-29T03:43:38;99904.69;;;1.41;80.62
14120;BME280;7138;49.246;9.100;2023-01-29T03:46:10;99914.38;;;1.32;80.14
14120;BME280;7138;49.246;9.100;2023-01-29T03:48:55;99927.50;;;1.24;79.98
14120;BME280;7138;49.246;9.100;2023-01-29T03:51:30;99936.28;;;1.14;80.72
14120;BME280;7138;49.246;9.100;2023-01-29T03:54:07;99932.69;;;1.10;81.67
14120;BME280;7138;49.246;9.100;2023-01-29T03:56:44;99929.19;;;1.08;81.75
14120;BME280;7138;49.246;9.100;2023-01-29T03:59:28;99919.69;;;0.91;82.02
14120;BME280;7138;49.246;9.100;2023-01-29T04:01:59;99931.22;;;0.99;81.49
14120;BME280;7138;49.246;9.100;2023-01-29T04:04:32;99936.19;;;0.98;82.28
14120;BME280;7138;49.246;9.100;2023-01-29T04:07:06;99933.59;;;0.96;81.65
14120;BME280;7138;49.246;9.100;2023-01-29T04:09:40;99939.56;;;0.97;81.25
14120;BME280;7138;49.246;9.100;2023-01-29T04:12:09;99933.81;;;1.01;81.55
14120;BME280;7138;49.246;9.100;2023-01-29T04:14:36;99929.00;;;1.05;81.92
14120;BME280;7138;49.246;9.100;2023-01-29T04:17:09;99938.47;;;1.08;81.89
14120;BME280;7138;49.246;9.100;2023-01-29T04:19:39;99931.72;;;1.08;81.35
14120;BME280;7138;49.246;9.100;2023-01-29T04:22:10;99940.31;;;1.10;82.03
14120;BME280;7138;49.246;9.100;2023-01-29T04:24:40;99927.59;;;1.10;81.57
14120;BME280;7138;49.246;9.100;2023-01-29T04:27:25;99932.50;;;1.07;81.33
14120;BME280;7138;49.246;9.100;2023-01-29T04:30:16;99932.34;;;1.04;80.64
14120;BME280;7138;49.246;9.100;2023-01-29T04:33:10;99941.47;;;1.01;81.28
14120;BME280;7138;49.246;9.100;2023-01-29T04:35:55;99943.47;;;1.06;80.98
14120;BME280;7138;49.246;9.100;2023-01-29T04:38:42;99922.75;;;1.00;81.20
14120;BME280;7138;49.246;9.100;2023-01-29T04:41:20;99937.00;;;1.12;81.92
14120;BME280;7138;49.246;9.100;2023-01-29T04:43:57;99933.63;;;1.13;82.39
14120;BME280;7138;49.246;9.100;2023-01-29T04:46:34;99937.25;;;1.01;82.41
14120;BME280;7138;49.246;9.100;2023-01-29T04:49:13;99933.59;;;0.96;81.83
14120;BME280;7138;49.246;9.100;2023-01-29T04:51:50;99920.56;;;0.92;82.30
14120;BME280;7138;49.246;9.100;2023-01-29T04:54:33;99932.59;;;0.94;82.20
14120;BME280;7138;49.246;9.100;2023-01-29T04:57:05;99941.47;;;0.86;82.57
14120;BME280;7138;49.246;9.100;2023-01-29T04:59:40;99952.38;;;0.84;83.10
14120;BME280;7138;49.246;9.100;2023-01-29T05:02:10;99956.16;;;0.90;82.94
14120;BME280;7138;49.246;9.100;2023-01-29T05:04:40;99944.19;;;0.89;83.03
14120;BME280;7138;49.246;9.100;2023-01-29T05:07:12;99943.75;;;0.96;83.37
14120;BME280;7138;49.246;9.100;2023-01-29T05:09:44;99939.03;;;1.02;83.39
14120;BME280;7138;49.246;9.100;2023-01-29T05:12:13;99931.72;;;1.08;83.08
14120;BME280;7138;49.246;9.100;2023-01-29T05:14:43;99932.69;;;1.10;83.64
14120;BME280;7138;49.246;9.100;2023-01-29T05:17:13;99932.44;;;1.06;82.79
14120;BME280;7138;49.246;9.100;2023-01-29T05:19:40;99926.47;;;1.05;82.41
14120;BME280;7138;49.246;9.100;2023-01-29T05:22:11;99920.66;;;1.08;82.24
14120;BME280;7138;49.246;9.100;2023-01-29T05:24:39;99903.06;;;1.13;82.70
14120;BME280;7138;49.246;9.100;2023-01-29T05:27:06;99892.38;;;1.18;82.11
14120;BME280;7138;49.246;9.100;2023-01-29T05:29:54;99885.59;;;1.19;82.27
14120;BME280;7138;49.246;9.100;2023-01-29T05:32:22;99887.53;;;1.23;82.39
14120;BME280;7138;49.246;9.100;2023-01-29T05:34:48;99897.72;;;1.23;81.92
14120;BME280;7138;49.246;9.100;2023-01-29T05:37:15;99901.19;;;1.25;82.02
14120;BME280;7138;49.246;9.100;2023-01-29T05:39:41;99897.09;;;1.27;82.06
14120;BME280;7138;49.246;9.100;2023-01-29T05:42:06;99893.56;;;1.25;82.05
14120;BME280;7138;49.246;9.100;2023-01-29T05:44:32;99902.03;;;1.24;82.26
14120;BME280;7138;49.246;9.100;2023-01-29T05:46:58;99906.28;;;1.25;81.61
14120;BME280;7138;49.246;9.100;2023-01-29T05:49:27;99902.09;;;1.25;82.81
14120;BME280;7138;49.246;9.100;2023-01-29T05:51:53;99897.88;;;1.26;82.47
14120;BME280;7138;49.246;9.100;2023-01-29T05:54:20;99903.75;;;1.25;82.41
14120;BME280;7138;49.246;9.100;2023-01-29T05:56:45;99908.78;;;1.23;81.49
14120;BME280;7138;49.246;9.100;2023-01-29T05:59:11;99895.09;;;1.21;81.74
14120;BME280;7138;49.246;9.100;2023-01-29T06:01:38;99887.97;;;1.16;81.91
14120;BME280;7138;49.246;9.100;2023-01-29T06:04:04;99904.72;;;1.27;81.67
14120;BME280;7138;49.246;9.100;2023-01-29T06:06:29;99904.91;;;1.30;82.36
14120;BME280;7138;49.246;9.100;2023-01-29T06:08:55;99907.44;;;1.30;81.76
14120;BME280;7138;49.246;9.100;2023-01-29T06:11:23;99912.44;;;1.28;81.31
14120;BME280;7138;49.246;9.100;2023-01-29T06:13:49;99900.63;;;1.14;81.85
14120;BME280;7138;49.246;9.100;2023-01-29T06:16:15;99912.81;;;1.20;81.92
14120;BME280;7138;49.246;9.100;2023-01-29T06:18:41;99906.84;;;1.19;82.40
14120;BME280;7138;49.246;9.100;2023-01-29T06:21:11;99902.78;;;1.23;82.74
14120;BME280;7138;49.246;9.100;2023-01-29T06:23:37;99898.50;;;1.22;82.47
14120;BME280;7138;49.246;9.100;2023-01-29T06:26:06;99904.06;;;1.15;81.83
14120;BME280;7138;49.246;9.100;2023-01-29T06:28:35;99904.84;;;1.14;82.18
14120;BME280;7138;49.246;9.100;2023-01-29T06:31:04;99909.16;;;1.15;82.64
14120;BME280;7138;49.246;9.100;2023-01-29T06:33:30;99907.50;;;1.15;82.53
14120;BME280;7138;49.246;9.100;2023-01-29T14:45:28;99688.47;;;4.26;73.93
14120;BME280;7138;49.246;9.100;2023-01-29T14:48:04;99677.06;;;4.18;73.36
14120;BME280;7138;49.246;9.100;2023-01-29T14:50:49;99681.41;;;4.20;73.41
14120;BME280;7138;49.246;9.100;2023-01-29T14:53:22;99681.28;;;4.17;72.89
14120;BME280;7138;49.246;9.100;2023-01-29T14:55:56;99680.91;;;4.08;72.54
14120;BME280;7138;49.246;9.100;2023-01-29T14:58:32;99678.59;;;4.14;73.25
14120;BME280;7138;49.246;9.100;2023-01-29T15:01:06;99685.59;;;4.18;73.78
14120;BME280;7138;49.246;9.100;2023-01-29T15:03:41;99678.69;;;4.16;73.93
14120;BME280;7138;49.246;9.100;2023-01-29T15:06:15;99680.66;;;4.23;73.50
14120;BME280;7138;49.246;9.100;2023-01-29T15:08:49;99681.72;;;4.28;73.90
14120;BME280;7138;49.246;9.100;2023-01-29T15:11:29;99666.53;;;4.10;73.00
14120;BME280;7138;49.246;9.100;2023-01-29T15:14:16;99674.50;;;3.97;73.55
14120;BME280;7138;49.246;9.100;2023-01-29T15:17:03;99679.25;;;3.88;73.80
14120;BME280;7138;49.246;9.100;2023-01-29T15:19:35;99676.47;;;3.83;75.22
14120;BME280;7138;49.246;9.100;2023-01-29T15:22:04;99680.00;;;3.85;74.81
14120;BME280;7138;49.246;9.100;2023-01-29T15:24:30;99681.41;;;3.79;74.59
14120;BME280;7138;49.246;9.100;2023-01-29T15:26:56;99674.28;;;3.72;75.00
14120;BME280;7138;49.246;9.100;2023-01-29T15:29:25;99665.22;;;3.59;75.56
14120;BME280;7138;49.246;9.100;2023-01-29T15:31:53;99663.75;;;3.64;75.06
14120;BME280;7138;49.246;9.100;2023-01-29T15:34:20;99661.63;;;3.75;75.33
14120;BME280;7138;49.246;9.100;2023-01-29T15:36:48;99663.75;;;3.64;75.21
14120;BME280;7138;49.246;9.100;2023-01-29T15:39:15;99669.00;;;3.67;75.02
14120;BME280;7138;49.246;9.100;2023-01-29T15:41:43;99663.44;;;3.77;75.73
14120;BME280;7138;49.246;9.100;2023-01-29T15:44:14;99657.03;;;3.87;75.70
14120;BME280;7138;49.246;9.100;2023-01-29T15:46:43;99656.22;;;3.88;74.94
14120;BME280;7138;49.246;9.100;2023-01-29T15:49:20;99661.25;;;3.66;74.97
14120;BME280;7138;49.246;9.100;2023-01-29T15:51:55;99653.41;;;3.61;74.72
14120;BME280;7138;49.246;9.100;2023-01-29T15:54:23;99655.97;;;3.61;75.04
14120;BME280;7138;49.246;9.100;2023-01-29T15:56:52;99665.19;;;3.58;74.91
14120;BME280;7138;49.246;9.100;2023-01-29T15:59:23;99669.41;;;3.57;74.68
14120;BME280;7138;49.246;9.100;2023-01-29T16:01:52;99679.69;;;3.59;74.97
14120;BME280;7138;49.246;9.100;2023-01-29T16:04:23;99676.34;;;3.60;74.78
14120;BME280;7138;49.246;9.100;2023-01-29T16:06:53;99672.03;;;3.59;75.39
14120;BME280;7138;49.246;9.100;2023-01-29T16:09:24;99674.94;;;3.47;74.70
14120;BME280;7138;49.246;9.100;2023-01-29T16:11:53;99682.69;;;3.49;75.36
14120;BME280;7138;49.246;9.100;2023-01-29T16:14:24;99685.50;;;3.36;75.74
14120;BME280;7138;49.246;9.100;2023-01-29T16:16:51;99667.34;;;3.10;75.94
14120;BME280;7138;49.246;9.100;2023-01-29T16:19:26;99682.41;;;3.23;76.21
14120;BME280;7138;49.246;9.100;2023-01-29T16:21:57;99684.19;;;3.24;76.20
14120;BME280;7138;49.246;9.100;2023-01-29T16:24:24;99680.66;;;3.22;75.48
14120;BME280;7138;49.246;9.100;2023-01-29T16:26:56;99681.22;;;3.15;75.34
14120;BME280;7138;49.246;9.100;2023-01-29T16:29:30;99681.69;;;3.07;76.17
14120;BME280;7138;49.246;9.100;2023-01-29T16:31:59;99673.66;;;2.99;76.48
14120;BME280;7138;49.246;9.100;2023-01-29T16:34:31;99676.19;;;2.98;76.47
14120;BME280;7138;49.246;9.100;2023-01-29T16:37:00;99665.75;;;2.93;76.54
14120;BME280;7138;49.246;9.100;2023-01-29T16:39:31;99670.06;;;2.94;76.99
14120;BME280;7138;49.246;9.100;2023-01-29T16:42:27;99659.16;;;2.98;76.35
14120;BME280;7138;49.246;9.100;2023-01-29T16:44:58;99653.97;;;2.97;77.01
14120;BME280;7138;49.246;9.100;2023-01-29T16:47:30;99649.88;;;3.00;76.35
14120;BME280;7138;49.246;9.100;2023-01-29T16:49:59;99651.47;;;2.98;77.04
14120;BME280;7138;49.246;9.100;2023-01-29T16:52:28;99646.25;;;2.95;77.53
14120;BME280;7138;49.246;9.100;2023-01-29T16:55:12;99644.50;;;2.94;76.78
14120;BME280;7138;49.246;9.100;2023-01-29T16:57:39;99639.28;;;2.91;77.66
14120;BME280;7138;49.246;9.100;2023-01-29T17:00:18;99636.63;;;2.90;77.48
14120;BME280;7138;49.246;9.100;2023-01-29T17:02:45;99641.59;;;2.87;77.80
14120;BME280;7138;49.246;9.100;2023-01-29T17:05:21;99632.88;;;2.82;78.37
14120;BME280;7138;49.246;9.100;2023-01-29T17:07:50;99621.22;;;2.69;77.96
14120;BME280;7138;49.246;9.100;2023-01-29T17:10:19;99638.59;;;2.76;77.62
14120;BME280;7138;49.246;9.100;2023-01-29T17:12:54;99639.31;;;2.73;77.61
14120;BME280;7138;49.246;9.100;2023-01-29T17:15:33;99644.28;;;2.70;77.82
14120;BME280;7138;49.246;9.100;2023-01-29T17:18:00;99647.41;;;2.65;78.08
14120;BME280;7138;49.246;9.100;2023-01-29T17:20:29;99632.50;;;2.55;77.83
14120;BME280;7138;49.246;9.100;2023-01-29T17:22:56;99641.19;;;2.58;77.37
14120;BME280;7138;49.246;9.100;2023-01-29T17:25:21;99648.75;;;2.57;78.00
14120;BME280;7138;49.246;9.100;2023-01-29T17:27:48;99642.72;;;2.55;78.02
14120;BME280;7138;49.246;9.100;2023-01-29T17:30:18;99637.53;;;2.53;77.81
14120;BME280;7138;49.246;9.100;2023-01-29T17:32:45;99638.19;;;2.49;78.13
14120;BME280;7138;49.246;9.100;2023-01-29T17:35:12;99635.44;;;2.45;78.26
14120;BME280;7138;49.246;9.100;2023-01-29T17:37:40;99639.31;;;2.37;78.60
14120;BME280;7138;49.246;9.100;2023-01-29T17:40:20;99634.00;;;2.32;79.43
14120;BME280;7138;49.246;9.100;2023-01-29T17:42:48;99644.50;;;2.20;80.39
14120;BME280;7138;49.246;9.100;2023-01-29T17:45:14;99640.88;;;2.15;79.37
14120;BME280;7138;49.246;9.100;2023-01-29T17:47:40;99640.88;;;2.15;79.49
14120;BME280;7138;49.246;9.100;2023-01-29T17:50:19;99639.97;;;2.15;80.10
14120;BME280;7138;49.246;9.100;2023-01-29T17:52:47;99644.06;;;2.11;80.46
14120;BME280;7138;49.246;9.100;2023-01-29T17:55:13;99642.31;;;2.10;80.28
14120;BME280;7138;49.246;9.100;2023-01-29T17:57:40;99637.06;;;2.07;79.84
14120;BME280;7138;49.246;9.100;2023-01-29T18:00:16;99638.88;;;2.10;79.46
14120;BME280;7138;49.246;9.100;2023-01-29T18:02:42;99634.50;;;2.07;79.82
14120;BME280;7138;49.246;9.100;2023-01-29T18:05:09;99631.81;;;2.04;80.84
14120;BME280;7138;49.246;9.100;2023-01-29T18:07:36;99616.81;;;1.93;80.74
14120;BME280;7138;49.246;9.100;2023-01-29T18:10:04;99631.16;;;1.91;81.27
14120;BME280;7138;49.246;9.100;2023-01-29T18:12:30;99636.69;;;1.82;81.50
14120;BME280;7138;49.246;9.100;2023-01-29T18:14:56;99635.69;;;1.79;81.31
14120;BME280;7138;49.246;9.100;2023-01-29T18:17:22;99638.06;;;1.76;81.24
14120;BME280;7138;49.246;9.100;2023-01-29T18:19:48;99638.41;;;1.65;82.16
14120;BME280;7138;49.246;9.100;2023-01-29T18:22:14;99655.78;;;1.56;82.47
14120;BME280;7138;49.246;9.100;2023-01-29T18:24:40;99647.06;;;1.51;82.68
14120;BME280;7138;49.246;9.100;2023-01-29T18:27:07;99662.34;;;1.51;83.44
14120;BME280;7138;49.246;9.100;2023-01-29T18:29:33;99659.25;;;1.41;83.90
14120;BME280;7138;49.246;9.100;2023-01-29T18:31:59;99659.97;;;1.38;84.34
14120;BME280;7138;49.246;9.100;2023-01-29T18:34:25;99656.53;;;1.38;84.60
14120;BME280;7138;49.246;9.100;2023-01-29T18:36:51;99662.84;;;1.28;84.24
14120;BME280;7138;49.246;9.100;2023-01-29T18:39:17;99670.16;;;1.22;84.97
14120;BME280;7138;49.246;9.100;2023-01-29T18:41:43;99665.00;;;1.21;85.33
14120;BME280;7138;49.246;9.100;2023-01-29T18:44:10;99674.72;;;1.12;85.12
14120;BME280;7138;49.246;9.100;2023-01-29T18:46:36;99687.59;;;1.15;85.82
14120;BME280;7138;49.246;9.100;2023-01-29T18:49:02;99665.94;;;1.06;85.32
14120;BME280;7138;49.246;9.100;2023-01-29T18:51:29;99677.75;;;1.21;85.69
14120;BME280;7138;49.246;9.100;2023-01-29T18:53:55;99678.63;;;1.21;85.72
14120;BME280;7138;49.246;9.100;2023-01-29T18:56:21;99677.31;;;1.13;85.97
14120;BME280;7138;49.246;9.100;2023-01-29T18:58:47;99677.50;;;1.16;85.27
14120;BME280;7138;49.246;9.100;2023-01-29T19:01:14;99668.28;;;1.18;85.86
14120;BME280;7138;49.246;9.100;2023-01-29T19:03:40;99672.34;;;1.15;85.57
14120;BME280;7138;49.246;9.100;2023-01-29T19:06:09;99674.00;;;1.14;85.77
14120;BME280;7138;49.246;9.100;2023-01-29T19:08:36;99678.31;;;1.15;86.00
14120;BME280;7138;49.246;9.100;2023-01-29T19:11:03;99663.81;;;1.14;85.63
14120;BME280;7138;49.246;9.100;2023-01-29T19:13:33;99654.81;;;1.04;86.53
14120;BME280;7138;49.246;9.100;2023-01-29T19:15:59;99668.75;;;1.11;86.06
14120;BME280;7138;49.246;9.100;2023-01-29T19:18:27;99658.72;;;1.14;85.49
14120;BME280;7138;49.246;9.100;2023-01-29T19:20:53;99663.97;;;1.17;84.87
14120;BME280;7138;49.246;9.100;2023-01-29T19:23:20;99658.94;;;1.19;85.50
14120;BME280;7138;49.246;9.100;2023-01-29T19:25:46;99653.06;;;1.20;84.54
14120;BME280;7138;49.246;9.100;2023-01-29T19:28:12;99647.66;;;1.14;86.00
14120;BME280;7138;49.246;9.100;2023-01-29T19:30:39;99653.47;;;1.11;86.56
14120;BME280;7138;49.246;9.100;2023-01-29T19:33:05;99638.91;;;1.08;85.55
14120;BME280;7138;49.246;9.100;2023-01-29T19:35:32;99638.19;;;1.11;86.09
14120;BME280;7138;49.246;9.100;2023-01-29T19:37:58;99630.25;;;1.05;86.01
14120;BME280;7138;49.246;9.100;2023-01-29T19:40:25;99633.81;;;1.08;86.45
14120;BME280;7138;49.246;9.100;2023-01-29T19:42:52;99638.19;;;1.11;85.64
14120;BME280;7138;49.246;9.100;2023-01-29T19:45:20;99635.66;;;1.11;86.01
14120;BME280;7138;49.246;9.100;2023-01-29T19:47:50;99638.09;;;1.09;85.06
14120;BME280;7138;49.246;9.100;2023-01-29T19:50:16;99635.41;;;1.06;85.67
14120;BME280;7138;49.246;9.100;2023-01-29T19:52:44;99640.41;;;1.05;85.88
14120;BME280;7138;49.246;9.100;2023-01-29T19:55:11;99630.81;;;0.99;85.62
14120;BME280;7138;49.246;9.100;2023-01-29T19:57:38;99637.56;;;0.99;85.47
14120;BME280;7138;49.246;9.100;2023-01-29T20:00:06;99622.13;;;0.96;85.80
14120;BME280;7138;49.246;9.100;2023-01-29T20:02:32;99625.41;;;0.93;85.99
14120;BME280;7138;49.246;9.100;2023-01-29T20:04:58;99625.31;;;0.92;85.91
14120;BME280;7138;49.246;9.100;2023-01-29T20:07:26;99628.66;;;0.91;86.53
14120;BME280;7138;49.246;9.100;2023-01-29T20:09:53;99621.81;;;0.90;86.60
14120;BME280;7138;49.246;9.100;2023-01-29T20:12:19;99625.41;;;0.93;86.61
14120;BME280;7138;49.246;9.100;2023-01-29T20:14:44;99621.03;;;0.91;86.53
14120;BME280;7138;49.246;9.100;2023-01-29T20:17:15;99615.69;;;0.86;86.84
14120;BME280;7138;49.246;9.100;2023-01-29T20:19:41;99613.28;;;0.89;86.56
14120;BME280;7138;49.246;9.100;2023-01-29T20:22:07;99603.91;;;0.88;85.87
14120;BME280;7138;49.246;9.100;2023-01-29T20:24:33;99609.81;;;0.87;86.20
14120;BME280;7138;49.246;9.100;2023-01-29T20:27:05;99615.69;;;0.86;86.08
14120;BME280;7138;49.246;9.100;2023-01-29T20:29:31;99616.09;;;0.78;87.11
14120;BME280;7138;49.246;9.100;2023-01-29T20:31:57;99610.56;;;0.70;88.06
14120;BME280;7138;49.246;9.100;2023-01-29T20:34:24;99613.94;;;0.69;88.49
14120;BME280;7138;49.246;9.100;2023-01-29T20:36:50;99612.03;;;0.65;88.30
14120;BME280;7138;49.246;9.100;2023-01-29T20:39:16;99604.06;;;0.59;88.54
14120;BME280;7138;49.246;9.100;2023-01-29T20:41:42;99609.00;;;0.56;89.13
14120;BME280;7138;49.246;9.100;2023-01-29T20:44:09;99603.28;;;0.60;89.18
14120;BME280;7138;49.246;9.100;2023-01-29T20:46:35;99608.28;;;0.59;89.69
14120;BME280;7138;49.246;9.100;2023-01-29T20:49:03;99605.72;;;0.59;89.55
14120;BME280;7138;49.246;9.100;2023-01-29T20:51:29;99606.78;;;0.62;89.05
14120;BME280;7138;49.246;9.100;2023-01-29T20:53:55;99604.31;;;0.64;88.63
14120;BME280;7138;49.246;9.100;2023-01-29T20:56:21;99609.00;;;0.56;90.10
14120;BME280;7138;49.246;9.100;2023-01-29T20:58:47;99607.88;;;0.51;89.66
14120;BME280;7138;49.246;9.100;2023-01-29T21:01:18;99593.78;;;0.41;90.52
14120;BME280;7138;49.246;9.100;2023-01-29T21:03:45;99604.19;;;0.46;91.03
14120;BME280;7138;49.246;9.100;2023-01-29T21:06:12;99595.06;;;0.49;90.73
14120;BME280;7138;49.246;9.100;2023-01-29T21:08:39;99591.31;;;0.43;91.25
14120;BME280;7138;49.246;9.100;2023-01-29T21:11:07;99588.44;;;0.37;92.39
14120;BME280;7138;49.246;9.100;2023-01-29T21:13:34;99594.50;;;0.39;92.42
14120;BME280;7138;49.246;9.100;2023-01-29T21:16:00;99584.00;;;0.33;92.78
14120;BME280;7138;49.246;9.100;2023-01-29T21:18:28;99569.63;;;0.33;91.78
14120;BME280;7138;49.246;9.100;2023-01-29T21:20:55;99576.88;;;0.42;92.52
14120;BME280;7138;49.246;9.100;2023-01-29T21:23:21;99568.75;;;0.49;92.53
14120;BME280;7138;49.246;9.100;2023-01-29T21:25:47;99580.28;;;0.42;93.22
14120;BME280;7138;49.246;9.100;2023-01-29T21:28:14;99560.56;;;0.38;92.28
14120;BME280;7138;49.246;9.100;2023-01-29T21:30:40;99562.88;;;0.50;92.08
14120;BME280;7138;49.246;9.100;2023-01-29T21:33:07;99564.53;;;0.49;91.82
14120;BME280;7138;49.246;9.100;2023-01-29T21:35:34;99573.84;;;0.33;93.86
14120;BME280;7138;49.246;9.100;2023-01-29T21:38:02;99564.13;;;0.26;94.34
14120;BME280;7138;49.246;9.100;2023-01-29T21:40:28;99568.03;;;0.35;94.06
14120;BME280;7138;49.246;9.100;2023-01-29T21:42:55;99565.19;;;0.45;93.85
14120;BME280;7138;49.246;9.100;2023-01-29T21:45:37;99583.47;;;0.38;94.33
14120;BME280;7138;49.246;9.100;2023-01-29T21:48:04;99586.94;;;0.40;94.27
14120;BME280;7138;49.246;9.100;2023-01-29T21:50:30;99577.66;;;0.41;94.51